Chennai, India
Current Conditions -  °F | °C
As of 10:10 AM on Tuesday 21 Oct 2014 (Local Time) from VOMM Reporting Station
Haze Haze  
Wind Chill: 88°   Ceiling: Unl
Heat Index: 98°   Visibility: 3mi
Dew Point: 75°   Wind: 14mph
Humidity: 66%   Direction: 60°ENE
Pressure: 29.94"   Gusts: NA
Location:  13.06°N, 80.25°E
Report Text: VOMM 210510Z 06012KT 5000 HZ SCT020 31/24 Q1014 NOSIG
Loading
Personal Weather Stations






























Interactive Weather Map
Tropical Storm Tracking
New forecast layout! Learn more

10-Day Weather Forecast

Advertisements
Track Severe Weather on mobile